createdAt,value
2022-12-01T00:01:40.427Z,99.9
2022-12-01T00:03:47.282Z,99.9
2022-12-01T00:05:51.210Z,99.9
2022-12-01T00:07:55.197Z,99.9
2022-12-01T00:08:58.554Z,99.9
2022-12-01T00:13:06.388Z,99.9
2022-12-01T00:15:10.284Z,99.9
2022-12-01T00:17:17.168Z,99.9
2022-12-01T00:19:21.081Z,99.9
2022-12-01T00:21:24.998Z,99.9
2022-12-01T00:23:30.482Z,99.9
2022-12-01T00:25:34.346Z,99.9
2022-12-01T00:27:38.246Z,99.9
2022-12-01T00:29:42.140Z,99.9
2022-12-01T00:35:56.852Z,99.9
2022-12-01T00:38:00.762Z,99.9
2022-12-01T00:40:04.658Z,99.9
2022-12-01T00:42:11.721Z,99.9
2022-12-01T00:44:12.500Z,99.9
2022-12-01T00:46:19.489Z,99.9
2022-12-01T00:48:23.282Z,99.9
2022-12-01T00:50:27.179Z,1
2022-12-01T00:52:31.113Z,1
2022-12-01T00:54:35.017Z,99.9
2022-12-01T00:56:38.879Z,99.9
2022-12-01T01:00:49.818Z,99.9
2022-12-01T01:02:53.661Z,99.9
2022-12-01T01:04:57.501Z,99.9
2022-12-01T01:06:00.988Z,99.9
2022-12-01T01:10:08.751Z,99.9
2022-12-01T01:12:12.687Z,1
2022-12-01T01:14:19.586Z,99.9
2022-12-01T01:16:23.536Z,99.9
2022-12-01T01:18:27.380Z,99.9
2022-12-01T01:20:31.294Z,99.9
2022-12-01T01:22:35.228Z,99.9
2022-12-01T01:24:39.091Z,99.9
2022-12-01T01:26:43.005Z,99.9
2022-12-01T01:28:49.893Z,99.9
2022-12-01T01:30:53.954Z,99.9
2022-12-01T01:32:57.768Z,99.9
2022-12-01T01:35:01.713Z,99.9
2022-12-01T01:37:05.605Z,99.9
2022-12-01T01:39:09.491Z,99.9
2022-12-01T01:41:13.408Z,99.9
2022-12-01T01:43:20.323Z,99.9
2022-12-01T01:45:24.236Z,99.9
2022-12-01T01:47:28.139Z,99.9
2022-12-01T01:49:32.042Z,1
2022-12-01T01:51:35.966Z,99.9
2022-12-01T01:53:39.880Z,1
2022-12-01T01:55:43.801Z,99.9
2022-12-01T01:58:08.524Z,1
2022-12-01T01:59:54.628Z,1
2022-12-01T02:01:58.539Z,1
2022-12-01T02:06:26.869Z,1
2022-12-01T02:08:30.812Z,1
2022-12-01T02:10:37.684Z,1
2022-12-01T02:12:41.612Z,1
2022-12-01T02:14:45.528Z,1
2022-12-01T02:16:49.545Z,1
2022-12-01T02:18:53.501Z,1
2022-12-01T02:20:57.254Z,1
2022-12-01T02:23:01.186Z,1
2022-12-01T02:25:08.090Z,1
2022-12-01T02:27:11.997Z,1
2022-12-01T02:29:15.931Z,1
2022-12-01T02:31:42.109Z,1
2022-12-01T02:33:23.701Z,1
2022-12-01T02:35:27.626Z,1
2022-12-01T02:37:31.534Z,1
2022-12-01T02:39:38.436Z,1
2022-12-01T02:41:42.345Z,1
2022-12-01T02:43:46.235Z,1
2022-12-01T02:45:50.220Z,1
2022-12-01T02:52:01.953Z,1
2022-12-01T02:54:08.781Z,1
2022-12-01T02:58:16.602Z,1
2022-12-01T02:59:20.100Z,1
2022-12-01T03:01:24.207Z,1
2022-12-01T03:03:27.883Z,1
2022-12-01T03:05:31.895Z,1
2022-12-01T03:07:38.769Z,1
2022-12-01T03:09:42.611Z,1
2022-12-01T03:13:50.397Z,99.9
2022-12-01T03:15:54.307Z,99.9
2022-12-01T03:17:58.223Z,99.9
2022-12-01T03:20:02.165Z,99.9
2022-12-01T03:22:09.038Z,99.9
2022-12-01T03:28:22.234Z,99.9
2022-12-01T03:34:32.399Z,99.9
2022-12-01T03:36:39.362Z,99.9
2022-12-01T03:38:43.247Z,99.9
2022-12-01T03:42:51.027Z,99.9
2022-12-01T03:44:54.895Z,99.9
2022-12-01T03:46:58.831Z,99.9
2022-12-01T03:49:02.732Z,99.9
2022-12-01T03:51:09.616Z,99.9
2022-12-01T03:53:13.514Z,99.9
2022-12-01T03:55:17.390Z,99.9
2022-12-01T03:56:20.849Z,99.9
2022-12-01T03:58:24.760Z,99.9
2022-12-01T04:00:28.641Z,99.9
2022-12-01T04:02:32.698Z,99.9
2022-12-01T04:04:39.437Z,99.9
2022-12-01T04:06:43.366Z,99.9
2022-12-01T04:08:47.256Z,99.9
2022-12-01T04:10:51.141Z,99.9
2022-12-01T04:12:55.044Z,99.9
2022-12-01T04:14:58.928Z,99.9
2022-12-01T04:17:02.826Z,99.9
2022-12-01T04:21:13.652Z,99.9
2022-12-01T04:25:21.414Z,99.9
2022-12-01T04:27:25.316Z,99.9
2022-12-01T04:29:29.231Z,99.9
2022-12-01T04:31:33.212Z,99.9
2022-12-01T04:35:59.678Z,99.9
2022-12-01T04:37:47.807Z,99.9
2022-12-01T04:39:52.195Z,99.9
2022-12-01T04:41:55.601Z,99.9
2022-12-01T04:43:59.496Z,99.9
2022-12-01T04:48:10.287Z,99.9
2022-12-01T04:50:14.181Z,99.9
2022-12-01T04:52:18.081Z,99.9
2022-12-01T04:53:21.514Z,99.9
2022-12-01T04:57:29.311Z,1
2022-12-01T04:59:33.210Z,99.9
2022-12-01T05:01:40.217Z,1
2022-12-01T05:03:43.994Z,1
2022-12-01T05:07:51.867Z,1
2022-12-01T05:09:55.676Z,1
2022-12-01T05:11:59.586Z,1
2022-12-01T05:14:03.477Z,1
2022-12-01T05:16:10.423Z,1
2022-12-01T05:18:14.289Z,1
2022-12-01T05:20:18.167Z,1
2022-12-01T05:22:42.599Z,1
2022-12-01T05:24:25.952Z,1
2022-12-01T05:26:29.846Z,1
2022-12-01T05:28:33.711Z,1
2022-12-01T05:31:31.150Z,1
2022-12-01T05:32:44.544Z,1
2022-12-01T05:36:52.325Z,1
2022-12-01T05:38:56.212Z,1
2022-12-01T05:41:00.106Z,1
2022-12-01T05:43:04.004Z,1
2022-12-01T05:45:10.913Z,1
2022-12-01T05:47:14.813Z,1
2022-12-01T05:49:18.719Z,1
2022-12-01T05:51:37.203Z,1
2022-12-01T05:53:41.103Z,1
2022-12-01T05:55:44.997Z,1
2022-12-01T05:57:51.875Z,1
2022-12-01T05:59:55.771Z,1
2022-12-01T06:04:03.622Z,1
2022-12-01T06:06:07.438Z,1
2022-12-01T06:08:11.336Z,1
2022-12-01T06:10:15.206Z,1
2022-12-01T06:12:22.122Z,1
2022-12-01T06:14:26.033Z,1
2022-12-01T06:16:29.988Z,1
2022-12-01T06:20:39.292Z,1
2022-12-01T06:22:43.144Z,1
2022-12-01T06:24:47.054Z,1
2022-12-01T06:31:03.695Z,1
2022-12-01T06:35:09.569Z,1
2022-12-01T06:37:13.457Z,1
2022-12-01T06:39:17.337Z,1
2022-12-01T06:41:24.234Z,1
2022-12-01T06:43:28.131Z,1
2022-12-01T06:45:32.060Z,1
2022-12-01T06:48:39.422Z,1
2022-12-01T06:50:43.296Z,1
2022-12-01T06:52:47.174Z,1
2022-12-01T06:54:54.094Z,1
2022-12-01T06:56:58.014Z,1
2022-12-01T06:59:01.905Z,1
2022-12-01T07:03:09.694Z,1
2022-12-01T07:11:28.457Z,1
2022-12-01T07:13:33.877Z,1
2022-12-01T07:17:39.974Z,1
2022-12-01T07:19:43.850Z,1
2022-12-01T07:23:54.635Z,1
2022-12-01T07:25:58.547Z,1
2022-12-01T07:28:02.458Z,1
2022-12-01T07:30:06.337Z,99.9
2022-12-01T07:32:10.183Z,99.9
2022-12-01T07:34:14.096Z,99.9
2022-12-01T07:36:17.979Z,99.9
2022-12-01T07:38:24.894Z,99.9
2022-12-01T07:40:28.790Z,99.9
2022-12-01T07:42:32.665Z,99.9
2022-12-01T07:45:40.085Z,99.9
2022-12-01T07:47:43.923Z,99.9
2022-12-01T07:51:54.688Z,99.9
2022-12-01T07:53:58.589Z,99.9
2022-12-01T07:56:07.051Z,99.9
2022-12-01T07:58:06.395Z,99.9
2022-12-01T08:00:10.296Z,99.9
2022-12-01T08:02:14.277Z,99.9
2022-12-01T08:06:24.930Z,99.9
2022-12-01T08:10:32.721Z,99.9
2022-12-01T08:12:36.598Z,99.9
2022-12-01T08:14:40.474Z,99.9
2022-12-01T08:16:44.394Z,99.9
2022-12-01T08:18:48.284Z,99.9
2022-12-01T08:20:55.192Z,99.9
2022-12-01T08:22:59.052Z,99.9
2022-12-01T08:25:02.988Z,99.9
2022-12-01T08:27:06.847Z,99.9
2022-12-01T08:29:13.534Z,99.9
2022-12-01T08:31:14.739Z,99.9
2022-12-01T08:35:25.432Z,99.9
2022-12-01T08:37:29.325Z,99.9
2022-12-01T08:39:33.240Z,99.9
2022-12-01T08:40:36.687Z,99.9
2022-12-01T08:42:40.575Z,99.9
2022-12-01T08:44:44.521Z,99.9
2022-12-01T08:46:48.468Z,99.9
2022-12-01T08:48:55.297Z,99.9
2022-12-01T08:50:59.184Z,99.9
2022-12-01T08:53:03.082Z,99.9
2022-12-01T08:55:06.984Z,99.9
2022-12-01T08:57:10.885Z,99.9
2022-12-01T08:59:14.800Z,99.9
2022-12-01T09:01:18.804Z,99.9
2022-12-01T09:07:33.438Z,99.9
2022-12-01T09:09:37.315Z,99.9
2022-12-01T09:11:41.237Z,99.9
2022-12-01T09:13:48.591Z,99.9
2022-12-01T09:17:55.975Z,99.9
2022-12-01T09:19:59.880Z,99.9
2022-12-01T09:22:03.802Z,99.9
2022-12-01T09:24:07.728Z,99.9
2022-12-01T09:26:13.737Z,99.9
2022-12-01T09:28:15.508Z,99.9
2022-12-01T09:30:19.446Z,99.9
2022-12-01T09:32:32.897Z,99.9
2022-12-01T09:34:30.291Z,99.9
2022-12-01T09:36:34.985Z,99.9
2022-12-01T09:38:58.623Z,99.9
2022-12-01T09:43:14.934Z,99.9
2022-12-01T09:45:13.409Z,99.9
2022-12-01T09:47:17.300Z,99.9
2022-12-01T09:49:39.951Z,99.9
2022-12-01T09:51:25.200Z,99.9
2022-12-01T10:00:03.659Z,99.9
2022-12-01T10:02:55.543Z,99.9
2022-12-01T10:03:51.716Z,99.9
2022-12-01T10:06:26.094Z,99.9
2022-12-01T10:10:03.507Z,99.9
2022-12-01T10:12:07.436Z,99.9
2022-12-01T10:14:19.398Z,99.9
2022-12-01T10:16:18.364Z,99.9
2022-12-01T10:18:22.224Z,99.9
2022-12-01T10:20:27.097Z,99.9
2022-12-01T10:22:31.059Z,99.9
2022-12-01T10:24:34.966Z,99.9
2022-12-01T10:26:38.887Z,99.9
2022-12-01T10:28:45.837Z,99.9
2022-12-01T10:32:53.686Z,99.9
2022-12-01T10:33:57.174Z,99.9
2022-12-01T10:36:01.103Z,99.9
2022-12-01T10:38:05.086Z,99.9
2022-12-01T10:40:08.950Z,99.9
2022-12-01T10:42:15.916Z,99.9
2022-12-01T10:44:19.876Z,99.9
2022-12-01T10:46:23.838Z,99.9
2022-12-01T10:48:27.733Z,99.9
2022-12-01T10:50:31.651Z,99.9
2022-12-01T10:52:35.595Z,99.9
2022-12-01T10:54:39.539Z,99.5
2022-12-01T10:56:46.483Z,99.1
2022-12-01T10:58:50.414Z,98.7
2022-12-01T11:01:00.586Z,98.7
2022-12-01T11:02:58.473Z,98.8
2022-12-01T11:05:02.251Z,99.1
2022-12-01T11:07:06.178Z,99.5
2022-12-01T11:09:10.139Z,99.5
2022-12-01T11:11:17.089Z,99.9
2022-12-01T11:13:21.008Z,99.4
2022-12-01T11:15:24.970Z,99.4
2022-12-01T11:17:28.909Z,99
2022-12-01T11:19:32.966Z,98.7
2022-12-01T11:21:36.778Z,98.3
2022-12-01T11:23:40.753Z,97.1
2022-12-01T11:25:47.697Z,91.1
2022-12-01T11:27:51.639Z,89.5
2022-12-01T11:29:55.600Z,75.5
2022-12-01T11:30:59.195Z,74.5
2022-12-01T11:33:03.008Z,40.3
2022-12-01T11:35:06.973Z,66.3
2022-12-01T11:37:10.921Z,44.6
2022-12-01T11:41:21.828Z,36.6
2022-12-01T11:43:25.778Z,49.9
2022-12-01T11:47:33.711Z,50.5
2022-12-01T11:49:40.109Z,32.4
2022-12-01T11:51:41.621Z,14
2022-12-01T11:53:48.551Z,14.9
2022-12-01T11:55:52.547Z,15.9
2022-12-01T11:57:56.483Z,1
2022-12-01T12:00:00.455Z,1
2022-12-01T12:02:04.435Z,10.5
2022-12-01T12:04:08.349Z,4.2
2022-12-01T12:06:38.834Z,19.5
2022-12-01T12:08:19.251Z,8
2022-12-01T12:10:23.267Z,1
2022-12-01T12:12:27.167Z,1
2022-12-01T12:14:31.163Z,1
2022-12-01T12:16:35.095Z,1
2022-12-01T12:18:40.610Z,1
2022-12-01T12:20:44.532Z,1
2022-12-01T12:22:55.513Z,1
2022-12-01T12:24:55.446Z,1
2022-12-01T12:26:59.412Z,1
2022-12-01T12:28:02.899Z,1
2022-12-01T12:30:06.876Z,1
2022-12-01T12:32:10.825Z,1
2022-12-01T12:34:14.743Z,1
2022-12-01T12:42:33.626Z,1
2022-12-01T12:44:37.925Z,1
2022-12-01T12:52:56.424Z,1
2022-12-01T12:55:00.393Z,1
2022-12-01T12:57:04.348Z,1
2022-12-01T13:03:16.236Z,1
2022-12-01T13:05:23.189Z,1
2022-12-01T13:07:27.245Z,1
2022-12-01T13:09:31.131Z,1
2022-12-01T13:15:43.124Z,1
2022-12-01T13:19:53.942Z,1
2022-12-01T13:21:58.002Z,1
2022-12-01T13:26:26.114Z,1
2022-12-01T13:28:30.068Z,1
2022-12-01T13:30:34.019Z,1
2022-12-01T13:32:41.004Z,1
2022-12-01T13:36:48.964Z,1
2022-12-01T13:38:52.934Z,1
2022-12-01T13:40:56.887Z,1
2022-12-01T13:43:05.515Z,1
2022-12-01T13:45:04.802Z,1
2022-12-01T13:47:11.764Z,1
2022-12-01T13:49:15.742Z,1
2022-12-01T13:51:21.033Z,1
2022-12-01T13:53:23.679Z,7.7
2022-12-01T13:55:27.632Z,7.1
2022-12-01T13:57:31.588Z,7
2022-12-01T13:59:35.552Z,16.6
2022-12-01T14:01:42.564Z,15.9
2022-12-01T14:03:46.488Z,14.7
2022-12-01T14:05:50.435Z,21.4
2022-12-01T14:07:54.469Z,34.8
2022-12-01T14:09:58.377Z,25.1
2022-12-01T14:12:02.329Z,18.7
2022-12-01T14:14:06.250Z,20
2022-12-01T14:16:13.300Z,22.4
2022-12-01T14:18:17.169Z,23.1
2022-12-01T14:20:21.126Z,24.2
2022-12-01T14:21:24.683Z,28.6
2022-12-01T14:23:28.578Z,20.9
2022-12-01T14:25:32.512Z,32.5
2022-12-01T14:27:36.469Z,40.2
2022-12-01T14:31:47.423Z,40.5
2022-12-01T14:35:55.266Z,50.4
2022-12-01T14:37:59.213Z,56.8
2022-12-01T14:40:03.159Z,58
2022-12-01T14:42:07.123Z,60
2022-12-01T14:46:18.200Z,57.7
2022-12-01T14:50:25.882Z,59.9
2022-12-01T14:52:29.884Z,59.6
2022-12-01T14:54:33.761Z,59.6
2022-12-01T14:56:37.706Z,58.8
2022-12-01T15:00:48.708Z,48.7
2022-12-01T15:02:52.509Z,48.8
2022-12-01T15:04:56.474Z,48.7
2022-12-01T15:11:11.019Z,54.1
2022-12-01T15:13:15.267Z,53
2022-12-01T15:18:26.596Z,48.4
2022-12-01T15:20:30.518Z,55.8
2022-12-01T15:22:34.444Z,61.2
2022-12-01T15:24:38.389Z,61.4
2022-12-01T15:26:45.336Z,58.1
2022-12-01T15:28:49.262Z,64.5
2022-12-01T15:30:53.197Z,72.3
2022-12-01T15:32:57.122Z,73.6
2022-12-01T15:35:01.077Z,73.9
2022-12-01T15:37:04.975Z,84
2022-12-01T15:41:30.171Z,95.9
2022-12-01T15:43:19.769Z,96.2
2022-12-01T15:45:23.704Z,97.6
2022-12-01T15:47:27.625Z,97.6
2022-12-01T15:49:31.567Z,98.4
2022-12-01T15:51:35.481Z,98.8
2022-12-01T15:53:39.410Z,99.2
2022-12-01T15:55:46.359Z,99.6
2022-12-01T15:57:50.307Z,99.9
2022-12-01T15:59:54.214Z,99.9
2022-12-01T16:01:58.161Z,99.9
2022-12-01T16:04:02.082Z,99.9
2022-12-01T16:06:06.028Z,99.9
2022-12-01T16:08:14.022Z,99.9
2022-12-01T16:10:16.878Z,99.9
2022-12-01T16:12:20.812Z,99.9
2022-12-01T16:14:24.777Z,99.9
2022-12-01T16:15:28.229Z,99.9
2022-12-01T16:17:32.180Z,99.9
2022-12-01T16:19:36.085Z,99.9
2022-12-01T16:21:40.049Z,99.9
2022-12-01T16:23:46.968Z,99.9
2022-12-01T16:27:54.836Z,99.9
2022-12-01T16:29:58.769Z,99.9
2022-12-01T16:32:19.722Z,99.9
2022-12-01T16:36:10.573Z,99.9
2022-12-01T16:40:21.442Z,99.9
2022-12-01T16:42:25.402Z,99.9
2022-12-01T16:44:29.471Z,99.9
2022-12-01T16:48:37.194Z,99.9
2022-12-01T16:50:41.109Z,99.9
2022-12-01T16:52:48.065Z,99.9
2022-12-01T16:54:52.339Z,99.9
2022-12-01T16:56:55.930Z,99.9
2022-12-01T16:58:59.840Z,99.9
2022-12-01T17:03:07.780Z,99.9
2022-12-01T17:05:11.645Z,99.9
2022-12-01T17:07:18.586Z,99.9
2022-12-01T17:11:26.428Z,99.9
2022-12-01T17:17:58.540Z,99.9
2022-12-01T17:20:05.478Z,99.9
2022-12-01T17:22:09.385Z,99.9
2022-12-01T17:24:18.674Z,99.9
2022-12-01T17:26:17.230Z,99.9
2022-12-01T17:28:21.149Z,99.9
2022-12-01T17:30:25.049Z,99.9
2022-12-01T17:32:28.977Z,99.9
2022-12-01T17:34:35.926Z,99.9
2022-12-01T17:36:39.842Z,99.9
2022-12-01T17:38:43.761Z,99.9
2022-12-01T17:40:47.650Z,99.9
2022-12-01T17:42:51.567Z,99.9
2022-12-01T17:44:55.477Z,99.9
2022-12-01T17:46:59.380Z,99.9
2022-12-01T17:49:06.301Z,99.9
2022-12-01T17:51:10.231Z,99.9
2022-12-01T17:53:14.163Z,99.9
2022-12-01T17:55:18.081Z,99.9
2022-12-01T17:57:21.967Z,99.9
2022-12-01T17:59:25.896Z,99.9
2022-12-01T18:01:30.405Z,99.9
2022-12-01T18:03:36.727Z,99.9
2022-12-01T18:05:40.656Z,99.9
2022-12-01T18:07:44.643Z,99.9
2022-12-01T18:08:48.013Z,99.9
2022-12-01T18:12:55.848Z,99.9
2022-12-01T18:15:01.313Z,99.9
2022-12-01T18:21:16.042Z,99.9
2022-12-01T18:23:19.956Z,99.9
2022-12-01T18:25:23.849Z,99.9
2022-12-01T18:27:27.763Z,99.9
2022-12-01T18:29:31.665Z,99.9
2022-12-01T18:31:38.673Z,99.9
2022-12-01T18:33:42.528Z,99.9
2022-12-01T18:41:58.176Z,99.9
2022-12-01T18:46:09.125Z,99.9
2022-12-01T18:48:12.912Z,99.9
2022-12-01T18:50:16.834Z,99.9
2022-12-01T18:56:28.559Z,99.9
2022-12-01T18:58:32.478Z,99.9
2022-12-01T19:00:39.479Z,99.9
2022-12-01T19:02:43.406Z,99.9
2022-12-01T19:04:47.509Z,99.9
2022-12-01T19:05:50.695Z,99.9
2022-12-01T19:07:54.715Z,99.9
2022-12-01T19:09:58.534Z,99.9
2022-12-01T19:12:02.458Z,99.9
2022-12-01T19:14:09.368Z,99.9
2022-12-01T19:16:13.340Z,99.9
2022-12-01T19:18:17.187Z,99.9
2022-12-01T19:22:25.116Z,99.9
2022-12-01T19:24:28.941Z,99.9
2022-12-01T19:28:39.784Z,99.9
2022-12-01T19:32:47.606Z,99.9
2022-12-01T19:34:51.784Z,99.9
2022-12-01T19:36:55.426Z,99.9
2022-12-01T19:39:00.471Z,99.9
2022-12-01T19:41:03.247Z,99.9
2022-12-01T19:45:14.029Z,99.9
2022-12-01T19:47:22.151Z,99.9
2022-12-01T19:49:21.839Z,99.9
2022-12-01T19:51:25.726Z,99.9
2022-12-01T19:53:33.521Z,99.9
2022-12-01T19:55:33.538Z,99.9
2022-12-01T19:57:40.472Z,99.9
2022-12-01T19:59:44.377Z,99.9
2022-12-01T20:01:48.295Z,99.9
2022-12-01T20:04:55.602Z,99.9
2022-12-01T20:06:59.505Z,99.9
2022-12-01T20:09:03.420Z,99.9
2022-12-01T20:11:10.325Z,99.9
2022-12-01T20:15:18.109Z,99.9
2022-12-01T20:17:21.996Z,99.9
2022-12-01T20:19:25.900Z,99.9
2022-12-01T20:21:29.812Z,99.9
2022-12-01T20:23:33.684Z,99.9
2022-12-01T20:25:40.614Z,99.9
2022-12-01T20:27:44.526Z,99.9
2022-12-01T20:29:48.562Z,99.9
2022-12-01T20:31:52.412Z,99.9
2022-12-01T20:33:56.197Z,99.9
2022-12-01T20:36:00.148Z,99.9
2022-12-01T20:40:10.901Z,99.9
2022-12-01T20:42:14.827Z,99.9
2022-12-01T20:44:18.709Z,99.9
2022-12-01T20:46:22.729Z,99.9
2022-12-01T20:48:26.506Z,99.9
2022-12-01T20:50:30.491Z,99.9
2022-12-01T20:52:34.292Z,99.9
2022-12-01T20:54:41.219Z,99.9
2022-12-01T20:56:45.122Z,99.9
2022-12-01T20:58:49.040Z,99.9
2022-12-01T21:05:15.452Z,99.1
2022-12-01T21:09:26.294Z,97.5
2022-12-01T21:15:37.998Z,96.9
2022-12-01T21:21:52.695Z,96.8
2022-12-01T21:26:00.558Z,97.7
2022-12-01T21:30:08.277Z,98.7
2022-12-01T21:32:12.185Z,99.2
2022-12-01T21:36:23.117Z,99.9
2022-12-01T21:38:26.862Z,99.9
2022-12-01T21:42:34.662Z,99.9
2022-12-01T21:44:38.532Z,99.9
2022-12-01T21:46:42.483Z,99.9
2022-12-01T21:48:46.301Z,99.9
2022-12-01T21:52:57.105Z,99.9
2022-12-01T21:55:00.967Z,99.9
2022-12-01T21:56:04.428Z,99.9
2022-12-01T21:58:08.299Z,99.9
2022-12-01T22:00:12.197Z,99.9
2022-12-01T22:02:16.103Z,99.9
2022-12-01T22:04:22.962Z,99.9
2022-12-01T22:06:30.775Z,99.9
2022-12-01T22:08:30.738Z,99.9
2022-12-01T22:10:34.600Z,99.9
2022-12-01T22:12:38.463Z,99.9
2022-12-01T22:14:42.378Z,99.9
2022-12-01T22:16:46.230Z,99.9
2022-12-01T22:20:57.000Z,99.9
2022-12-01T22:23:00.867Z,99.9
2022-12-01T22:25:04.781Z,99.9
2022-12-01T22:35:27.155Z,99.9
2022-12-01T22:37:31.039Z,99.9
2022-12-01T22:41:38.760Z,99.9
2022-12-01T22:43:42.646Z,99.9
2022-12-01T22:47:53.615Z,99.9
2022-12-01T22:49:57.335Z,99.9
2022-12-01T22:52:01.171Z,99.9
2022-12-01T22:55:08.493Z,99.9
2022-12-01T23:01:23.184Z,99.9
2022-12-01T23:03:26.999Z,99.9
2022-12-01T23:05:30.865Z,99.9
2022-12-01T23:07:34.874Z,99.9
2022-12-01T23:09:38.607Z,99.9
2022-12-01T23:11:42.484Z,99.9
2022-12-01T23:15:53.389Z,99.9
2022-12-01T23:17:57.135Z,99.9
2022-12-01T23:20:01.000Z,99.9
2022-12-01T23:22:04.847Z,99.9
2022-12-01T23:24:08.723Z,99.9
2022-12-01T23:26:12.601Z,99.9
2022-12-01T23:30:23.322Z,99.9
2022-12-01T23:32:27.295Z,99.9
2022-12-01T23:38:38.821Z,99.9
2022-12-01T23:44:53.764Z,99.9
2022-12-01T23:46:57.426Z,99.9
2022-12-01T23:49:01.176Z,99.9
2022-12-01T23:50:04.603Z,99.9
2022-12-01T23:52:08.483Z,99.9
2022-12-01T23:54:12.327Z,99.9
2022-12-01T23:56:16.236Z,99.9
2022-12-01T23:58:23.106Z,99.9
